Time;durP1;ratioP1;P1;durP2;ratioP2;P2;SDS_P1;SDS_P2;PMS_P1;PMS_P2;Temp;Humidity;BMP_temperature;BMP_pressure;BME280_temperature;BME280_humidity;BME280_pressure;Samples;Min_cycle;Max_cycle;Signal;HPM_P1;HPM_P2
2022/02/12 00:00:49;;;;;;;149.48;69.30;;;;;;;5.47;57.98;95617.97;4882616;29;20072;-76
2022/02/12 00:03:14;;;;;;;179.57;87.90;;;;;;;5.46;56.78;95623.31;4901909;29;20093;-76
2022/02/12 00:05:40;;;;;;;171.65;83.13;;;;;;;5.39;56.75;95620.66;4902033;29;20033;-76
2022/02/12 00:08:05;;;;;;;168.70;79.97;;;;;;;5.26;56.72;95621.28;4888240;29;20482;-76
2022/02/12 00:10:31;;;;;;;106.50;50.88;;;;;;;5.21;57.63;95630.56;4903247;29;20036;-76
2022/02/12 00:12:57;;;;;;;52.75;27.83;;;;;;;5.20;57.06;95640.03;4903522;29;20119;-77
2022/02/12 00:15:22;;;;;;;61.95;28.17;;;;;;;5.02;56.82;95631.84;4902189;29;20107;-76
2022/02/12 00:17:48;;;;;;;58.95;28.55;;;;;;;4.98;57.31;95638.34;4902197;29;20652;-76
2022/02/12 00:20:14;;;;;;;69.07;28.25;;;;;;;4.98;57.45;95639.16;4904237;29;20040;-77
2022/02/12 00:22:39;;;;;;;62.47;31.38;;;;;;;4.96;57.40;95637.72;4903648;29;20091;-76
2022/02/12 00:25:06;;;;;;;74.15;34.00;;;;;;;4.96;57.75;95637.72;4903596;29;20051;-76
2022/02/12 00:27:31;;;;;;;64.63;31.42;;;;;;;4.82;57.75;95642.69;4888115;29;20096;-76
2022/02/12 00:29:56;;;;;;;65.82;31.42;;;;;;;4.88;58.04;95635.22;4900119;29;20033;-76
2022/02/12 00:32:27;;;;;;;57.05;28.65;;;;;;;4.85;57.41;95640.72;4886465;29;20110;-75
2022/02/12 00:34:53;;;;;;;62.30;28.50;;;;;;;4.83;57.90;95633.19;4902893;29;20059;-76
2022/02/12 00:37:19;;;;;;;67.00;29.98;;;;;;;4.81;57.43;95646.25;4905277;29;20045;-76
2022/02/12 00:39:44;;;;;;;62.20;29.27;;;;;;;4.66;57.41;95647.97;4903264;29;20080;-76
2022/02/12 00:42:11;;;;;;;62.28;30.50;;;;;;;4.58;58.04;95655.00;4905370;29;20520;-75
2022/02/12 00:44:36;;;;;;;53.03;28.50;;;;;;;4.65;58.32;95661.03;4905316;29;20048;-76
2022/02/12 00:47:02;;;;;;;79.35;35.58;;;;;;;4.55;58.62;95668.19;4905605;29;20040;-76
2022/02/12 00:49:27;;;;;;;94.90;43.67;;;;;;;4.48;57.74;95662.94;4904621;29;20041;-76
2022/02/12 00:51:53;;;;;;;65.85;34.78;;;;;;;4.44;58.47;95669.41;4906725;29;20492;-77
2022/02/12 00:54:18;;;;;;;78.57;37.40;;;;;;;4.40;58.76;95656.09;4905666;29;20100;-76
2022/02/12 00:56:44;;;;;;;92.75;40.03;;;;;;;4.45;58.78;95664.09;4904200;29;20040;-77
2022/02/12 00:59:09;;;;;;;86.00;40.70;;;;;;;4.50;58.38;95663.56;4903849;29;20040;-76
2022/02/12 01:01:35;;;;;;;77.95;38.42;;;;;;;4.46;57.91;95667.47;4897312;29;20032;-76
2022/02/12 01:04:03;;;;;;;71.15;37.47;;;;;;;4.46;57.92;95680.34;4903139;29;20123;-76
2022/02/12 01:06:30;;;;;;;80.68;36.65;;;;;;;4.42;58.33;95679.09;4901103;29;20040;-76
2022/02/12 01:08:55;;;;;;;73.13;33.83;;;;;;;4.45;58.22;95686.47;4903750;29;20044;-76
2022/02/12 01:11:20;;;;;;;78.63;39.42;;;;;;;4.39;58.61;95687.13;4903609;29;20087;-76
2022/02/12 01:13:46;;;;;;;79.07;39.30;;;;;;;4.39;58.05;95687.13;4888621;29;20040;-76
2022/02/12 01:16:11;;;;;;;95.47;44.58;;;;;;;4.40;58.35;95689.56;4901055;29;20416;-77
2022/02/12 01:18:37;;;;;;;102.32;52.03;;;;;;;4.39;58.28;95693.13;4902762;29;20532;-76
2022/02/12 01:21:02;;;;;;;104.05;55.45;;;;;;;4.37;58.39;95694.25;4887178;29;20040;-76
2022/02/12 01:23:28;;;;;;;94.50;50.38;;;;;;;4.37;58.68;95699.38;4902475;29;20116;-76
2022/02/12 01:25:53;;;;;;;91.80;45.53;;;;;;;4.33;59.42;95698.94;4903198;29;20072;-76
2022/02/12 01:28:19;;;;;;;78.80;42.67;;;;;;;4.28;58.81;95703.81;4899937;29;20032;-76
2022/02/12 01:30:44;;;;;;;81.47;39.22;;;;;;;4.31;59.08;95695.72;4900900;29;20075;-77
2022/02/12 01:33:11;;;;;;;60.33;30.45;;;;;;;4.37;58.75;95700.19;4879115;29;20024;-77
2022/02/12 01:35:36;;;;;;;76.13;41.67;;;;;;;4.45;58.71;95701.94;4904145;29;20036;-76
2022/02/12 01:38:02;;;;;;;92.95;49.30;;;;;;;4.45;58.29;95694.19;4903594;29;20039;-77
2022/02/12 01:40:27;;;;;;;94.25;48.92;;;;;;;4.47;58.72;95698.19;4903361;29;20043;-77
2022/02/12 01:42:53;;;;;;;100.40;50.83;;;;;;;4.45;58.80;95694.19;4900840;29;20456;-77
2022/02/12 01:45:18;;;;;;;119.10;54.35;;;;;;;4.40;58.77;95706.78;4904588;29;20508;-76
2022/02/12 01:47:44;;;;;;;128.95;61.05;;;;;;;4.52;58.55;95707.97;4903027;29;20389;-77
2022/02/12 01:50:09;;;;;;;119.93;57.20;;;;;;;4.56;58.58;95709.25;4903813;29;20020;-77
2022/02/12 01:52:36;;;;;;;100.97;50.50;;;;;;;4.57;59.00;95710.84;4902981;29;20036;-77
2022/02/12 01:55:01;;;;;;;100.07;50.15;;;;;;;4.60;58.90;95707.94;4937192;23;21021;-77
2022/02/12 01:57:27;;;;;;;89.78;43.83;;;;;;;4.61;58.73;95721.63;4962667;28;20118;-76
2022/02/12 01:59:52;;;;;;;68.18;30.38;;;;;;;4.60;58.50;95714.88;4964754;28;20034;-76
2022/02/12 02:02:17;;;;;;;69.47;31.77;;;;;;;4.67;57.17;95726.06;4970784;28;20061;-76
2022/02/12 02:04:43;;;;;;;49.72;26.55;;;;;;;4.65;57.54;95718.50;4970513;28;20038;-76
2022/02/12 02:07:12;;;;;;;55.20;28.92;;;;;;;4.67;57.45;95716.56;4937236;28;20089;-76
2022/02/12 02:09:37;;;;;;;55.90;25.25;;;;;;;4.72;57.67;95724.59;4944900;28;20027;-76
2022/02/12 02:12:03;;;;;;;50.10;23.70;;;;;;;4.71;57.51;95722.97;4953325;28;20042;-77
2022/02/12 02:14:32;;;;;;;40.15;21.40;;;;;;;4.78;57.14;95731.63;4937289;28;20034;-77
2022/02/12 02:16:58;;;;;;;44.20;20.42;;;;;;;4.85;56.81;95738.66;4952785;28;20045;-76
2022/02/12 02:19:23;;;;;;;49.35;22.33;;;;;;;4.80;56.93;95737.41;4970631;28;20582;-77
2022/02/12 02:21:49;;;;;;;46.17;19.88;;;;;;;4.90;56.48;95738.94;4952775;28;20038;-76
2022/02/12 02:24:17;;;;;;;37.65;19.65;;;;;;;4.90;56.96;95736.38;4937552;28;20121;-76
2022/02/12 02:26:43;;;;;;;31.10;18.48;;;;;;;4.96;56.42;95740.81;4969887;28;20147;-77
2022/02/12 02:29:08;;;;;;;33.85;18.73;;;;;;;4.97;56.59;95742.41;4953003;28;20041;-77
2022/02/12 02:31:34;;;;;;;34.25;18.00;;;;;;;4.98;55.92;95749.97;4970420;28;20046;-77
2022/02/12 02:34:05;;;;;;;33.65;17.60;;;;;;;4.99;56.36;95748.19;4952763;28;20070;-77
2022/02/12 02:36:31;;;;;;;37.42;18.85;;;;;;;5.04;56.51;95743.31;4922648;28;20049;-77
2022/02/12 02:38:56;;;;;;;38.22;19.88;;;;;;;5.09;56.13;95747.00;4970268;28;20038;-77
2022/02/12 02:41:22;;;;;;;44.08;22.65;;;;;;;5.11;55.34;95750.19;4953034;28;20043;-77
2022/02/12 02:43:47;;;;;;;48.97;22.00;;;;;;;5.08;55.81;95754.91;4936674;28;20037;-77
2022/02/12 02:46:13;;;;;;;33.78;16.58;;;;;;;5.06;55.49;95754.28;4951879;28;20042;-77
2022/02/12 02:48:38;;;;;;;37.97;18.27;;;;;;;5.04;56.14;95757.03;4970082;28;20033;-77
2022/02/12 02:56:32;;;;;;;55.05;25.65;;;;;;;5.20;55.16;95758.63;4955181;28;20114;-75
2022/02/12 02:58:59;;;;;;;78.45;33.20;;;;;;;5.21;55.44;95754.31;4973105;28;20462;-75
2022/02/12 03:01:27;;;;;;;97.35;36.45;;;;;;;5.20;54.75;95758.63;4973303;28;20031;-76
2022/02/12 03:03:53;;;;;;;73.68;31.50;;;;;;;5.19;55.61;95763.97;4956478;28;20042;-76
2022/02/12 03:06:19;;;;;;;85.93;43.40;;;;;;;5.17;55.52;95758.19;4955610;28;20031;-76
2022/02/12 03:08:44;;;;;;;106.35;51.22;;;;;;;5.18;55.82;95765.75;4940132;28;20074;-75
2022/02/12 03:11:10;;;;;;;84.97;41.50;;;;;;;5.20;55.35;95763.78;4957534;28;20062;-75
2022/02/12 03:13:36;;;;;;;102.57;50.53;;;;;;;5.20;55.22;95756.06;4974001;28;20155;-75
2022/02/12 03:16:02;;;;;;;78.88;37.30;;;;;;;5.21;55.21;95769.78;4940256;28;20107;-76
2022/02/12 03:18:28;;;;;;;64.88;31.50;;;;;;;5.16;55.43;95772.88;4956815;28;20039;-76
2022/02/12 03:20:53;;;;;;;64.07;32.00;;;;;;;5.25;55.17;95768.44;4939329;28;20035;-76
2022/02/12 03:23:19;;;;;;;66.15;31.88;;;;;;;5.29;55.22;95780.81;4971287;28;20226;-76
2022/02/12 03:28:14;;;;;;;35.03;18.98;;;;;;;5.27;55.03;95798.25;4977232;23;20126;-76
2022/02/12 03:30:46;;;;;;;32.88;15.70;;;;;;;5.36;55.68;95789.44;4944635;28;20103;-76
2022/02/12 03:33:11;;;;;;;22.57;14.20;;;;;;;5.46;54.65;95798.72;4912017;29;20031;-75
2022/02/12 03:35:37;;;;;;;48.47;24.88;;;;;;;5.48;54.91;95797.56;4910548;29;20378;-75
2022/02/12 03:38:12;;;;;;;41.65;16.65;;;;;;;5.57;55.02;95803.47;4926456;29;20047;-75
2022/02/12 03:40:42;;;;;;;28.38;12.57;;;;;;;5.61;54.67;95804.69;4926164;29;20102;-75
2022/02/12 03:43:08;;;;;;;17.63;9.95;;;;;;;5.68;54.58;95801.22;4927804;29;20058;-75
2022/02/12 03:45:33;;;;;;;22.58;12.43;;;;;;;5.70;55.16;95801.88;4944522;29;20500;-75
2022/02/12 03:47:59;;;;;;;19.25;10.10;;;;;;;5.65;55.48;95804.16;4925940;29;20428;-75
2022/02/12 03:50:24;;;;;;;19.05;10.88;;;;;;;5.64;55.27;95807.72;4910697;29;20031;-75
2022/02/12 03:52:50;;;;;;;20.25;10.10;;;;;;;5.56;55.92;95820.72;4926151;29;20099;-75
2022/02/12 03:55:16;;;;;;;16.08;8.43;;;;;;;5.53;56.02;95817.66;4933435;29;20027;-76
2022/02/12 03:57:42;;;;;;;19.40;11.70;;;;;;;5.54;56.11;95821.88;4909905;29;20047;-75
2022/02/12 04:00:11;;;;;;;21.00;11.88;;;;;;;5.55;56.37;95816.53;4925992;29;20032;-75
2022/02/12 04:02:38;;;;;;;17.33;9.80;;;;;;;5.57;55.28;95821.53;4926850;29;20061;-77
2022/02/12 04:05:04;;;;;;;18.02;9.75;;;;;;;5.59;55.46;95824.72;4910429;29;20034;-77
2022/02/12 04:07:29;;;;;;;12.90;9.00;;;;;;;5.61;56.07;95817.59;4925859;29;20047;-77
2022/02/12 04:09:54;;;;;;;16.48;10.23;;;;;;;5.64;55.35;95830.16;4924882;29;20035;-77
2022/02/12 04:12:20;;;;;;;15.00;9.13;;;;;;;5.65;55.10;95844.66;4908560;29;20046;-76
2022/02/12 04:14:45;;;;;;;18.85;9.82;;;;;;;5.69;54.92;95846.72;4942402;29;20040;-76
2022/02/12 04:17:11;;;;;;;15.13;8.40;;;;;;;5.77;54.92;95856.16;4942809;29;20031;-77
2022/02/12 04:19:36;;;;;;;11.52;7.93;;;;;;;5.78;54.72;95862.91;4944230;28;20082;-76
2022/02/12 04:22:29;;;;;;;16.55;10.43;;;;;;;5.76;55.66;95857.13;4942195;29;20031;-77
2022/02/12 04:24:56;;;;;;;19.30;10.65;;;;;;;5.72;56.09;95866.22;4968962;23;20553;-76
2022/02/12 04:27:21;;;;;;;19.63;11.20;;;;;;;5.68;56.94;95867.50;4961979;28;20030;-76
2022/02/12 04:29:47;;;;;;;20.20;12.00;;;;;;;5.65;57.32;95873.03;4962951;28;20038;-76
2022/02/12 04:32:13;;;;;;;26.15;13.50;;;;;;;5.64;57.64;95879.16;4962744;28;20050;-77
2022/02/12 04:34:39;;;;;;;25.75;14.85;;;;;;;5.58;58.42;95891.00;4961247;28;20035;-76
2022/02/12 04:37:04;;;;;;;26.70;14.88;;;;;;;5.60;58.29;95890.81;4937338;28;20094;-77
2022/02/12 04:39:29;;;;;;;24.10;15.23;;;;;;;5.61;58.25;95895.81;4929849;28;20062;-77
2022/02/12 04:41:55;;;;;;;29.95;16.02;;;;;;;5.63;58.85;95903.38;4946371;28;20046;-77
2022/02/12 04:44:20;;;;;;;28.58;15.73;;;;;;;5.59;58.78;95905.50;4937212;28;20086;-76
2022/02/12 04:46:46;;;;;;;25.02;15.93;;;;;;;5.62;59.81;95917.25;4952463;28;20038;-77
2022/02/12 04:49:11;;;;;;;41.80;18.63;;;;;;;5.60;60.22;95919.22;4921171;28;20035;-77
2022/02/12 04:51:37;;;;;;;41.17;20.08;;;;;;;5.60;60.20;95930.31;4944300;28;20039;-77
2022/02/12 04:54:02;;;;;;;32.70;19.52;;;;;;;5.57;61.12;95920.34;4952965;28;20030;-76
2022/02/12 04:56:28;;;;;;;38.47;21.55;;;;;;;5.57;62.51;95927.31;4945704;28;20054;-76
2022/02/12 04:58:53;;;;;;;39.15;22.55;;;;;;;5.51;62.71;95931.34;4941392;28;20031;-76
2022/02/12 05:01:22;;;;;;;39.70;24.33;;;;;;;5.52;62.65;95937.31;4936514;28;20047;-76
2022/02/12 05:03:52;;;;;;;43.75;27.33;;;;;;;5.52;63.83;95942.47;4930145;28;20070;-76
2022/02/12 05:06:18;;;;;;;50.47;24.70;;;;;;;5.47;64.24;95944.78;4927919;28;20050;-76
2022/02/12 05:08:44;;;;;;;51.78;26.00;;;;;;;5.48;63.83;95946.38;4912308;28;20037;-77
2022/02/12 05:11:09;;;;;;;49.72;29.08;;;;;;;5.54;63.73;95950.88;4936362;28;20047;-77
2022/02/12 05:13:35;;;;;;;47.10;27.50;;;;;;;5.58;64.23;95957.28;4936077;28;20039;-77
2022/02/12 05:16:00;;;;;;;49.58;28.40;;;;;;;5.59;63.91;95964.03;4944239;28;20042;-76
2022/02/12 05:18:26;;;;;;;44.88;26.60;;;;;;;5.56;63.82;95960.03;4962390;28;20045;-76
2022/02/12 05:20:51;;;;;;;46.20;29.05;;;;;;;5.56;64.63;95960.03;4959422;28;20792;-76
2022/02/12 05:23:17;;;;;;;45.30;27.98;;;;;;;5.56;65.31;95970.34;4944203;28;20070;-76
2022/02/12 05:25:42;;;;;;;46.75;29.42;;;;;;;5.64;64.78;95972.06;4943391;28;20414;-76
2022/02/12 05:28:07;;;;;;;48.28;29.10;;;;;;;5.65;65.41;95973.66;4961995;28;20039;-75
2022/02/12 05:30:33;;;;;;;60.60;35.00;;;;;;;5.72;64.77;95982.34;4925828;28;20059;-76
2022/02/12 05:32:59;;;;;;;76.53;38.95;;;;;;;5.69;65.13;95982.66;4944423;28;20047;-76
2022/02/12 05:35:25;;;;;;;54.20;33.65;;;;;;;5.72;65.46;95987.50;4943689;28;20117;-76
2022/02/12 05:37:51;;;;;;;57.08;36.92;;;;;;;5.75;65.79;95994.91;4944384;28;20033;-76
2022/02/12 05:40:16;;;;;;;63.13;34.70;;;;;;;5.76;65.56;95998.28;4961828;28;20037;-76
2022/02/12 05:42:41;;;;;;;50.60;32.50;;;;;;;5.71;65.76;96003.97;4960432;28;20035;-76
2022/02/12 05:45:07;;;;;;;46.67;29.80;;;;;;;5.71;65.63;96004.75;4942535;28;20042;-76
2022/02/12 05:47:36;;;;;;;53.08;31.35;;;;;;;5.79;66.06;96009.06;4944273;28;20042;-75
2022/02/12 05:50:02;;;;;;;59.85;33.67;;;;;;;5.89;65.09;96007.06;4952278;28;20031;-76
2022/02/12 05:52:27;;;;;;;61.47;37.17;;;;;;;5.93;65.85;96008.34;4926639;28;20031;-75
2022/02/12 05:54:53;;;;;;;47.22;33.08;;;;;;;6.01;64.56;96010.84;4926972;28;20034;-76
2022/02/12 05:57:19;;;;;;;48.90;31.75;;;;;;;5.96;65.26;96007.19;4961300;28;20035;-76
2022/02/12 05:59:44;;;;;;;43.75;28.92;;;;;;;5.98;65.26;96011.19;4943332;28;20097;-76
2022/02/12 06:02:10;;;;;;;42.00;29.05;;;;;;;5.96;65.89;96007.19;4912561;28;20041;-76
2022/02/12 06:04:35;;;;;;;53.65;30.10;;;;;;;5.98;65.45;96010.38;4951439;28;20037;-76
2022/02/12 06:07:01;;;;;;;61.88;29.58;;;;;;;6.01;65.33;96028.91;4928357;28;20046;-76
2022/02/12 06:09:27;;;;;;;57.00;30.67;;;;;;;6.01;65.54;96035.84;4935431;28;20460;-76
2022/02/12 06:11:52;;;;;;;48.70;30.85;;;;;;;6.03;64.83;96039.09;4914523;28;20027;-76
2022/02/12 06:14:18;;;;;;;54.00;30.27;;;;;;;6.06;64.79;96043.09;4928255;28;20036;-76
2022/02/12 06:16:43;;;;;;;47.83;29.88;;;;;;;6.11;64.85;96038.22;4943001;28;20408;-76
2022/02/12 06:19:09;;;;;;;41.65;26.73;;;;;;;6.15;64.12;96036.88;4943277;28;20504;-76
2022/02/12 06:21:34;;;;;;;55.15;33.90;;;;;;;6.14;64.42;96036.06;4961175;28;20464;-76
2022/02/12 06:23:59;;;;;;;50.65;33.30;;;;;;;6.16;64.31;96043.66;4942464;28;20057;-76
2022/02/12 06:26:25;;;;;;;54.22;31.15;;;;;;;6.13;64.30;96039.63;4960435;28;20024;-76
2022/02/12 06:28:52;;;;;;;51.85;30.40;;;;;;;6.13;64.47;96044.00;4936457;28;20130;-77
2022/02/12 06:31:17;;;;;;;56.47;33.67;;;;;;;6.14;64.62;96037.84;4929559;28;20043;-76
2022/02/12 06:33:43;;;;;;;45.42;27.17;;;;;;;6.07;64.94;96036.97;4931492;28;20518;-76
2022/02/12 06:36:08;;;;;;;47.60;29.77;;;;;;;6.15;64.41;96052.38;4963786;28;20042;-76
2022/02/12 06:38:34;;;;;;;58.38;32.63;;;;;;;6.27;63.90;96051.78;4964840;28;20030;-76
2022/02/12 06:40:59;;;;;;;59.80;34.75;;;;;;;6.42;63.61;96061.38;4952250;28;20062;-76
2022/02/12 06:43:25;;;;;;;58.92;36.25;;;;;;;6.61;62.83;96069.41;4932434;28;20019;-76
2022/02/12 06:45:50;;;;;;;46.25;27.95;;;;;;;6.80;61.49;96072.47;4946185;28;20039;-76
2022/02/12 06:48:18;;;;;;;37.63;25.35;;;;;;;6.85;61.25;96080.50;4939369;28;20403;-76
2022/02/12 06:50:43;;;;;;;46.63;26.35;;;;;;;6.88;60.68;96085.31;4963097;28;20479;-75
2022/02/12 06:53:09;;;;;;;53.20;27.80;;;;;;;6.92;60.31;96078.81;4962505;28;20043;-76
2022/02/12 06:55:34;;;;;;;44.65;29.13;;;;;;;6.96;60.39;96087.81;4931261;28;20550;-76
2022/02/12 06:58:00;;;;;;;46.72;29.17;;;;;;;7.08;60.04;96085.59;4922975;28;20585;-76
2022/02/12 07:00:27;;;;;;;39.40;27.13;;;;;;;7.13;59.55;96094.41;4946374;28;20430;-76
2022/02/12 07:02:53;;;;;;;43.42;26.40;;;;;;;7.17;59.21;96100.84;4937343;28;20419;-76
2022/02/12 07:05:19;;;;;;;34.85;23.75;;;;;;;7.24;58.74;96098.34;4946301;28;20034;-76
2022/02/12 07:07:45;;;;;;;40.05;20.95;;;;;;;7.33;58.19;96099.06;4927487;28;20151;-76
2022/02/12 07:10:11;;;;;;;28.13;19.50;;;;;;;7.43;57.73;96099.56;4962211;28;20027;-76
2022/02/12 07:12:36;;;;;;;32.15;19.88;;;;;;;7.50;57.13;96095.31;4953484;28;20062;-76
2022/02/12 07:15:02;;;;;;;30.15;20.15;;;;;;;7.43;56.81;96104.75;4963290;28;20035;-75
2022/02/12 07:17:28;;;;;;;27.83;19.88;;;;;;;7.40;56.96;96112.88;4965261;28;20027;-76
2022/02/12 07:19:53;;;;;;;37.85;22.58;;;;;;;7.43;57.21;96115.09;4930247;28;20400;-76
2022/02/12 07:22:25;;;;;;;36.50;20.38;;;;;;;7.48;56.07;96102.41;4936913;28;20039;-76
2022/02/12 07:24:50;;;;;;;30.00;18.17;;;;;;;7.46;55.69;96115.53;4954909;28;20054;-76
2022/02/12 07:27:16;;;;;;;40.08;17.83;;;;;;;7.57;55.37;96114.28;4937748;28;20352;-76
2022/02/12 07:29:41;;;;;;;30.70;19.33;;;;;;;7.63;55.24;96123.09;4960055;28;20035;-77
2022/02/12 07:32:07;;;;;;;37.97;19.58;;;;;;;7.74;54.35;96107.91;4944639;28;20106;-77
2022/02/12 07:34:32;;;;;;;43.75;24.42;;;;;;;7.93;54.04;96111.72;4945941;28;20039;-76
2022/02/12 07:36:58;;;;;;;41.30;21.75;;;;;;;8.15;52.79;96109.97;4962001;28;20054;-76
2022/02/12 07:39:25;;;;;;;21.25;15.13;;;;;;;8.24;51.92;96108.84;4937238;28;20499;-76
2022/02/12 07:41:50;;;;;;;33.33;16.05;;;;;;;8.29;51.37;96109.06;4938722;28;20074;-79
2022/02/12 07:44:16;;;;;;;23.38;14.75;;;;;;;8.37;51.85;96123.75;4962772;28;20071;-77
2022/02/12 07:46:41;;;;;;;19.83;14.68;;;;;;;8.43;50.96;96118.59;4965438;28;20042;-75
2022/02/12 07:49:07;;;;;;;18.30;13.43;;;;;;;8.43;50.78;96123.78;4945486;28;20079;-75
2022/02/12 07:51:32;;;;;;;29.95;12.60;;;;;;;8.49;49.80;96114.47;4962683;28;20031;-76
2022/02/12 07:53:59;;;;;;;17.92;10.85;;;;;;;8.43;49.83;96116.00;4936618;28;20039;-76
2022/02/12 07:56:24;;;;;;;13.40;9.77;;;;;;;8.50;49.79;96125.66;4929159;28;20035;-76
2022/02/12 07:58:50;;;;;;;16.42;10.25;;;;;;;8.63;49.30;96116.19;4937653;28;20050;-75
2022/02/12 08:01:18;;;;;;;16.73;11.05;;;;;;;8.71;48.68;96112.66;4913764;28;20113;-75
2022/02/12 08:03:44;;;;;;;19.38;10.93;;;;;;;8.76;47.13;96123.25;4962633;28;20117;-76
2022/02/12 08:08:58;;;;;;;11.10;7.18;;;;;;;8.82;46.94;96111.34;4962623;28;20076;-76
2022/02/12 08:11:23;;;;;;;13.68;7.72;;;;;;;8.76;46.90;96118.06;4962040;28;20451;-76
2022/02/12 08:13:50;;;;;;;14.77;9.02;;;;;;;8.67;46.64;96119.22;4945856;28;20332;-76
2022/02/12 08:16:16;;;;;;;13.30;9.63;;;;;;;8.64;46.50;96110.03;4945697;28;20039;-75
2022/02/12 08:18:42;;;;;;;12.20;7.82;;;;;;;8.53;46.97;96112.31;4929704;28;20060;-76
2022/02/12 08:21:07;;;;;;;13.63;9.27;;;;;;;8.60;47.91;96113.16;4952416;28;20043;-75
2022/02/12 08:23:33;;;;;;;13.05;8.38;;;;;;;8.62;47.22;96116.38;4962668;28;20039;-75
2022/02/12 08:25:58;;;;;;;9.15;6.90;;;;;;;8.63;46.45;96110.22;4928201;28;20748;-75
2022/02/12 08:28:24;;;;;;;15.18;6.97;;;;;;;8.72;46.50;96109.06;4945749;28;20050;-76
2022/02/12 08:30:49;;;;;;;9.43;6.28;;;;;;;8.65;45.58;96110.81;4929015;28;20070;-74
2022/02/12 08:33:15;;;;;;;8.63;5.65;;;;;;;8.55;45.33;96116.31;4963865;28;20027;-75
2022/02/12 08:35:40;;;;;;;10.15;6.10;;;;;;;8.52;45.83;96128.84;4944085;28;20391;-75
2022/02/12 08:38:06;;;;;;;7.82;5.63;;;;;;;8.48;46.11;96122.44;4921080;28;20088;-75
2022/02/12 08:40:31;;;;;;;11.90;5.70;;;;;;;8.39;46.18;96122.56;4945050;28;20042;-75
2022/02/12 08:42:57;;;;;;;10.88;4.85;;;;;;;8.29;45.95;96131.59;4962015;28;20063;-75
2022/02/12 08:45:24;;;;;;;6.40;4.50;;;;;;;8.18;45.87;96114.75;4943846;28;20039;-75
2022/02/12 08:47:49;;;;;;;4.90;4.50;;;;;;;8.17;46.52;96126.13;4936753;28;20046;-75
2022/02/12 08:50:15;;;;;;;7.63;4.53;;;;;;;8.17;46.24;96122.72;4944396;28;20019;-75
2022/02/12 08:52:41;;;;;;;13.70;5.18;;;;;;;8.00;47.29;96127.34;4934927;28;20062;-75
2022/02/12 08:55:08;;;;;;;10.50;5.60;;;;;;;8.11;47.10;96132.00;4960806;28;20154;-75
2022/02/12 08:57:33;;;;;;;8.23;6.05;;;;;;;8.30;46.26;96128.84;4962041;28;20035;-75
2022/02/12 08:59:58;;;;;;;13.88;8.02;;;;;;;8.46;46.09;96134.78;4943554;28;20039;-75
2022/02/12 09:02:24;;;;;;;13.07;4.95;;;;;;;8.42;44.89;96119.59;4961938;28;20097;-75
2022/02/12 09:04:49;;;;;;;10.93;5.75;;;;;;;8.33;46.07;96127.66;4961704;28;20121;-75
2022/02/12 09:07:15;;;;;;;16.73;7.93;;;;;;;8.49;45.81;96126.66;4960116;28;20031;-75
2022/02/12 09:09:42;;;;;;;14.30;7.47;;;;;;;8.66;45.75;96117.63;4911951;28;20117;-75
2022/02/12 09:12:09;;;;;;;10.63;6.85;;;;;;;8.68;45.46;96123.41;4913224;28;20039;-76
2022/02/12 09:14:34;;;;;;;13.55;8.02;;;;;;;8.64;45.20;96122.19;4951609;28;20034;-76
2022/02/12 09:17:00;;;;;;;17.85;9.45;;;;;;;8.57;45.37;96129.09;4935839;28;20121;-77
2022/02/12 09:19:26;;;;;;;16.42;7.28;;;;;;;8.68;45.14;96126.00;4928633;28;20038;-76
2022/02/12 09:21:51;;;;;;;10.60;7.38;;;;;;;8.75;44.23;96121.66;4912778;28;20039;-76
2022/02/12 09:24:17;;;;;;;10.35;6.75;;;;;;;8.93;44.45;96124.59;4936817;28;21021;-76
2022/02/12 09:26:42;;;;;;;27.50;10.15;;;;;;;9.11;44.58;96121.53;4944345;28;20027;-76
2022/02/12 09:29:08;;;;;;;24.10;8.63;;;;;;;9.24;43.84;96131.16;4943834;28;20035;-76
2022/02/12 09:31:33;;;;;;;11.93;5.45;;;;;;;9.32;43.70;96125.84;4936366;28;20175;-76
2022/02/12 09:33:59;;;;;;;14.45;5.57;;;;;;;9.33;43.41;96124.84;4960959;28;20427;-76
2022/02/12 09:36:24;;;;;;;15.25;5.55;;;;;;;9.34;43.28;96116.06;4929019;28;20420;-78
2022/02/12 09:38:57;;;;;;;17.45;7.38;;;;;;;9.41;43.34;96124.69;4962730;28;20118;-77
2022/02/12 09:41:25;;;;;;;10.73;6.60;;;;;;;9.50;42.85;96110.56;4944217;29;20074;-79
2022/02/12 09:43:54;;;;;;;6.22;5.15;;;;;;;9.47;43.36;96113.53;4953893;29;20111;-78
2022/02/12 09:46:23;;;;;;;8.13;5.93;;;;;;;9.47;42.85;96100.56;4907882;29;20188;-77
2022/02/12 09:48:48;;;;;;;6.85;6.07;;;;;;;9.47;42.76;96116.13;4941855;29;20040;-77
2022/02/12 09:51:14;;;;;;;10.70;4.85;;;;;;;9.46;42.74;96106.75;4909154;29;20423;-77
2022/02/12 09:53:39;;;;;;;5.97;5.38;;;;;;;9.41;43.23;96098.72;4909139;28;20163;-77
2022/02/12 09:56:13;;;;;;;14.82;4.80;;;;;;;9.34;42.64;96100.50;4909240;29;20043;-77
2022/02/12 09:58:39;;;;;;;15.68;7.68;;;;;;;9.39;43.35;96103.31;4918365;29;20056;-77
2022/02/12 10:01:04;;;;;;;16.70;6.95;;;;;;;9.53;43.62;96099.78;4903587;29;20446;-77
2022/02/12 10:03:30;;;;;;;18.42;9.15;;;;;;;9.67;42.90;96099.84;4868405;29;20073;-76
2022/02/12 10:05:55;;;;;;;10.20;6.25;;;;;;;9.74;42.53;96091.06;4875714;29;20041;-78
2022/02/12 10:08:22;;;;;;;7.22;4.40;;;;;;;9.73;41.98;96093.84;4903903;29;20044;-78
2022/02/12 10:10:51;;;;;;;5.50;4.93;;;;;;;9.67;42.12;96097.25;4888252;29;20029;-78
2022/02/12 10:13:24;;;;;;;18.00;8.05;;;;;;;9.58;42.75;96100.00;4896058;23;20101;-77
2022/02/12 10:15:52;;;;;;;12.77;5.80;;;;;;;9.63;42.34;96100.22;4931689;29;20039;-77
2022/02/12 10:18:20;;;;;;;12.63;6.05;;;;;;;9.60;42.53;96092.84;4937198;29;20046;-77
2022/02/12 10:20:47;;;;;;;10.93;6.55;;;;;;;9.59;42.42;96099.00;4909129;29;20036;-77
2022/02/12 10:23:13;;;;;;;17.42;9.80;;;;;;;9.61;42.59;96093.63;4909331;29;20044;-77
2022/02/12 10:25:44;;;;;;;18.10;8.70;;;;;;;9.63;42.57;96082.06;4926708;29;20027;-79
2022/02/12 10:28:10;;;;;;;15.38;6.82;;;;;;;9.72;41.79;96076.66;4938366;23;20166;-78
2022/02/12 10:30:36;;;;;;;6.28;5.68;;;;;;;9.67;41.71;96089.44;4959989;29;20039;-78
2022/02/12 10:33:03;;;;;;;12.43;7.47;;;;;;;9.66;41.72;96087.84;4968072;29;20055;-78
2022/02/12 10:35:29;;;;;;;11.88;5.60;;;;;;;9.67;41.79;96076.47;4947984;29;20031;-77
2022/02/12 10:37:59;;;;;;;11.52;7.13;;;;;;;9.74;41.79;96080.66;4935221;29;20047;-77
2022/02/12 10:40:24;;;;;;;11.68;7.07;;;;;;;9.89;42.10;96067.53;4951048;29;20043;-77
2022/02/12 10:42:51;;;;;;;12.60;6.88;;;;;;;10.01;41.24;96076.34;4950264;29;20042;-77
2022/02/12 10:45:18;;;;;;;35.53;10.63;;;;;;;10.15;40.76;96065.00;4952241;28;20443;-77
2022/02/12 10:47:46;;;;;;;9.07;6.28;;;;;;;10.27;40.36;96062.63;4918585;29;20035;-77
2022/02/12 10:50:13;;;;;;;14.98;5.53;;;;;;;10.22;39.92;96058.00;4918355;29;20526;-78
2022/02/12 10:53:00;;;;;;;13.20;5.15;;;;;;;10.32;40.61;96062.03;4916392;29;20504;-78
2022/02/12 10:55:35;;;;;;;5.90;4.82;;;;;;;10.23;39.65;96051.81;4951880;28;20102;-78
2022/02/12 10:58:03;;;;;;;17.45;6.68;;;;;;;10.25;39.54;96046.44;4943020;29;20111;-78
2022/02/12 11:00:29;;;;;;;8.55;5.72;;;;;;;10.21;40.22;96056.41;4939945;29;20039;-77
2022/02/12 11:02:55;;;;;;;13.38;5.10;;;;;;;10.22;39.66;96050.22;4984667;23;20058;-78
2022/02/12 11:05:22;;;;;;;7.68;4.78;;;;;;;10.26;39.48;96047.25;4964648;28;20606;-77
2022/02/12 11:07:49;;;;;;;5.25;4.75;;;;;;;10.30;39.47;96038.03;4960209;28;20083;-78
2022/02/12 11:10:15;;;;;;;9.45;5.07;;;;;;;10.32;39.31;96042.03;4945604;28;20045;-78
2022/02/12 11:12:40;;;;;;;12.52;6.05;;;;;;;10.36;40.00;96043.22;4952175;28;20039;-78
2022/02/12 11:15:06;;;;;;;15.50;9.15;;;;;;;10.48;39.61;96046.84;4960844;28;20067;-76
2022/02/12 11:17:33;;;;;;;20.80;7.35;;;;;;;10.52;39.12;96045.44;4961003;28;20065;-77
2022/02/12 11:19:59;;;;;;;17.23;7.15;;;;;;;10.53;39.35;96039.22;4953871;28;20043;-76
2022/02/12 11:22:25;;;;;;;14.60;6.90;;;;;;;10.58;39.38;96036.03;4946490;28;20093;-76
2022/02/12 11:24:50;;;;;;;15.75;7.88;;;;;;;10.69;38.48;96037.22;4962878;28;20114;-76
2022/02/12 11:27:16;;;;;;;14.50;8.32;;;;;;;10.66;38.59;96043.63;4952257;28;20522;-76
2022/02/12 11:29:44;;;;;;;13.10;5.30;;;;;;;10.72;38.67;96032.41;4963266;28;20042;-76
2022/02/12 11:32:19;;;;;;;11.07;5.88;;;;;;;10.81;38.45;96031.19;4960432;28;20047;-76